createdAt,value
2017-06-13T00:00:24.951Z,1006.15
2017-06-13T00:01:05.485Z,1006.14
2017-06-13T00:01:46.009Z,1006.17
2017-06-13T00:02:26.524Z,1006.13
2017-06-13T00:03:07.067Z,1006.18
2017-06-13T00:03:47.605Z,1006.15
2017-06-13T00:04:28.147Z,1006.17
2017-06-13T00:05:08.669Z,1006.18
2017-06-13T00:05:49.213Z,1006.19
2017-06-13T00:06:29.735Z,1006.19
2017-06-13T00:07:10.263Z,1006.16
2017-06-13T00:07:50.793Z,1006.16
2017-06-13T00:08:31.311Z,1006.16
2017-06-13T00:09:11.839Z,1006.21
2017-06-13T00:09:52.366Z,1006.19
2017-06-13T00:10:32.892Z,1006.15
2017-06-13T00:11:13.411Z,1006.2
2017-06-13T00:11:53.945Z,1006.19
2017-06-13T00:12:34.470Z,1006.16
2017-06-13T00:13:15.015Z,1006.2
2017-06-13T00:13:55.528Z,1006.14
2017-06-13T00:14:36.051Z,1006.17
2017-06-13T00:15:16.577Z,1006.19
2017-06-13T00:15:57.102Z,1006.15
2017-06-13T00:16:37.630Z,1006.18
2017-06-13T00:17:18.150Z,1006.14
2017-06-13T00:17:58.714Z,1006.22
2017-06-13T00:18:39.236Z,1006.17
2017-06-13T00:19:19.772Z,1006.17
2017-06-13T00:20:00.287Z,1006.14
2017-06-13T00:20:40.870Z,1006.16
2017-06-13T00:21:21.424Z,1006.18
2017-06-13T00:22:01.945Z,1006.17
2017-06-13T00:22:42.488Z,1006.19
2017-06-13T00:23:23.011Z,1006.18
2017-06-13T00:24:03.543Z,1006.16
2017-06-13T00:24:44.071Z,1006.15
2017-06-13T00:25:24.600Z,1006.14
2017-06-13T00:26:05.128Z,1006.17
2017-06-13T00:26:45.654Z,1006.17
2017-06-13T00:27:26.174Z,1006.12
2017-06-13T00:28:06.703Z,1006.11
2017-06-13T00:28:47.236Z,1006.13
2017-06-13T00:29:27.769Z,1006.03
2017-06-13T00:30:08.309Z,1006.06
2017-06-13T00:30:48.827Z,1006.1
2017-06-13T00:31:29.355Z,1006.07
2017-06-13T00:32:09.880Z,1006.1
2017-06-13T00:32:50.403Z,1006.09
2017-06-13T00:33:30.928Z,1006.1
2017-06-13T00:34:11.450Z,1006.15
2017-06-13T00:34:51.986Z,1006.13
2017-06-13T00:35:32.503Z,1006.13
2017-06-13T00:36:13.024Z,1006.15
2017-06-13T00:36:53.547Z,1006.1
2017-06-13T00:37:34.071Z,1006.12
2017-06-13T00:38:14.592Z,1006.11
2017-06-13T00:38:55.113Z,1006.15
2017-06-13T00:39:35.655Z,1006.11
2017-06-13T00:41:54.059Z,1006.13
2017-06-13T00:42:34.591Z,1006.11
2017-06-13T00:43:15.115Z,1006.09
2017-06-13T00:43:55.631Z,1006.09
2017-06-13T00:44:36.159Z,1006.11
2017-06-13T00:45:16.695Z,1006.14
2017-06-13T00:45:57.224Z,1006.11
2017-06-13T00:46:37.747Z,1006.09
2017-06-13T00:47:18.264Z,1006.1
2017-06-13T00:47:58.787Z,1006.09
2017-06-13T00:48:39.305Z,1006.07
2017-06-13T00:49:19.839Z,1006.11
2017-06-13T00:50:00.369Z,1006.09
2017-06-13T00:50:40.888Z,1006.09
2017-06-13T00:51:21.403Z,1006.06
2017-06-13T00:52:01.916Z,1006.04
2017-06-13T00:52:42.439Z,1006.06
2017-06-13T00:53:22.950Z,1006.05
2017-06-13T00:54:03.473Z,1006.05
2017-06-13T00:54:43.992Z,1006.07
2017-06-13T00:55:24.510Z,1006.04
2017-06-13T00:56:05.033Z,1006.03
2017-06-13T00:56:45.558Z,1006.06
2017-06-13T00:57:26.090Z,1006.04
2017-06-13T00:58:06.624Z,1006.04
2017-06-13T00:58:47.155Z,1006.04
2017-06-13T00:59:27.687Z,1006.13
2017-06-13T01:00:08.224Z,1006.11
2017-06-13T01:00:48.758Z,1006.08
2017-06-13T01:01:29.276Z,1006.1
2017-06-13T01:02:09.798Z,1006.1
2017-06-13T01:02:50.344Z,1006.07
2017-06-13T01:03:30.862Z,1006.08
2017-06-13T01:04:11.383Z,1006.13
2017-06-13T01:04:51.900Z,1006.11
2017-06-13T01:05:32.415Z,1006.13
2017-06-13T01:06:12.945Z,1006.12
2017-06-13T01:06:53.481Z,1006.11
2017-06-13T01:07:34.027Z,1006.15
2017-06-13T01:08:14.537Z,1006.18
2017-06-13T01:08:55.056Z,1006.1
2017-06-13T01:09:35.578Z,1006.1
2017-06-13T01:10:16.108Z,1006.1
2017-06-13T01:10:56.635Z,1006.1
2017-06-13T01:11:37.167Z,1006.1
2017-06-13T01:12:17.700Z,1006.09
2017-06-13T01:12:58.225Z,1006.09
2017-06-13T01:13:38.755Z,1006.08
2017-06-13T01:14:19.270Z,1006.12
2017-06-13T01:14:59.801Z,1006.13
2017-06-13T01:15:40.341Z,1006.14
2017-06-13T01:16:20.854Z,1006.13
2017-06-13T01:17:01.373Z,1006.09
2017-06-13T01:17:41.907Z,1006.04
2017-06-13T01:18:22.574Z,1006.05
2017-06-13T01:20:15.671Z,1006.07
2017-06-13T01:20:56.194Z,1006.04
2017-06-13T01:21:36.715Z,1006.08
2017-06-13T01:22:17.334Z,1006.09
2017-06-13T01:22:57.813Z,1006.11
2017-06-13T01:23:38.336Z,1006.04
2017-06-13T01:24:18.861Z,1006.08
2017-06-13T01:24:59.394Z,1006.04
2017-06-13T01:25:39.916Z,1006.04
2017-06-13T01:26:20.438Z,1006.05
2017-06-13T01:27:00.956Z,1006.02
2017-06-13T01:27:41.491Z,1006.03
2017-06-13T01:28:22.030Z,1006.05
2017-06-13T01:29:02.554Z,1006.05
2017-06-13T01:29:43.074Z,1006.08
2017-06-13T01:30:23.605Z,1006.08
2017-06-13T01:31:04.129Z,1006.08
2017-06-13T01:31:44.658Z,1006.12
2017-06-13T01:32:25.174Z,1006.11
2017-06-13T01:33:05.693Z,1006.13
2017-06-13T01:33:46.218Z,1006.11
2017-06-13T01:34:26.755Z,1006.13
2017-06-13T01:35:07.269Z,1006.17
2017-06-13T01:35:47.800Z,1006.11
2017-06-13T01:36:28.322Z,1006.13
2017-06-13T01:37:08.841Z,1006.16
2017-06-13T01:37:49.372Z,1006.15
2017-06-13T01:38:29.889Z,1006.14
2017-06-13T01:39:10.405Z,1006.18
2017-06-13T01:39:50.923Z,1006.19
2017-06-13T01:40:31.446Z,1006.19
2017-06-13T01:41:11.975Z,1006.15
2017-06-13T01:41:52.501Z,1006.18
2017-06-13T01:42:33.025Z,1006.17
2017-06-13T01:43:13.543Z,1006.16
2017-06-13T01:43:54.129Z,1006.18
2017-06-13T01:44:34.649Z,1006.15
2017-06-13T01:45:15.184Z,1006.18
2017-06-13T01:45:55.698Z,1006.2
2017-06-13T01:46:36.223Z,1006.15
2017-06-13T01:47:16.749Z,1006.17
2017-06-13T01:47:57.283Z,1006.19
2017-06-13T01:48:37.802Z,1006.14
2017-06-13T01:49:18.323Z,1006.2
2017-06-13T01:49:58.836Z,1006.19
2017-06-13T01:50:39.366Z,1006.16
2017-06-13T01:51:19.892Z,1006.2
2017-06-13T01:52:00.416Z,1006.2
2017-06-13T01:52:40.949Z,1006.22
2017-06-13T01:53:21.469Z,1006.21
2017-06-13T01:54:01.993Z,1006.24
2017-06-13T01:54:42.517Z,1006.25
2017-06-13T01:55:23.033Z,1006.26
2017-06-13T01:56:03.551Z,1006.26
2017-06-13T01:56:44.069Z,1006.28
2017-06-13T01:57:24.609Z,1006.27
2017-06-13T01:58:05.149Z,1006.26
2017-06-13T01:58:45.672Z,1006.28
2017-06-13T01:59:26.194Z,1006.25
2017-06-13T02:00:06.717Z,1006.25
2017-06-13T02:00:47.254Z,1006.24
2017-06-13T02:01:27.783Z,1006.26
2017-06-13T02:02:08.300Z,1006.25
2017-06-13T02:02:48.816Z,1006.33
2017-06-13T02:03:29.338Z,1006.25
2017-06-13T02:04:09.855Z,1006.26
2017-06-13T02:04:50.379Z,1006.25
2017-06-13T02:05:30.893Z,1006.28
2017-06-13T02:06:11.415Z,1006.3
2017-06-13T02:06:51.943Z,1006.22
2017-06-13T02:07:32.460Z,1006.25
2017-06-13T02:08:12.977Z,1006.24
2017-06-13T02:08:53.494Z,1006.25
2017-06-13T02:09:34.015Z,1006.24
2017-06-13T02:10:14.543Z,1006.22
2017-06-13T02:10:55.091Z,1006.24
2017-06-13T02:11:35.615Z,1006.22
2017-06-13T02:12:16.153Z,1006.23
2017-06-13T02:12:56.683Z,1006.22
2017-06-13T02:13:37.211Z,1006.2
2017-06-13T02:14:17.736Z,1006.24
2017-06-13T02:14:58.243Z,1006.25
2017-06-13T02:15:38.765Z,1006.24
2017-06-13T02:16:19.294Z,1006.22
2017-06-13T02:16:59.828Z,1006.25
2017-06-13T02:17:40.341Z,1006.2
2017-06-13T02:18:20.865Z,1006.24
2017-06-13T02:19:01.394Z,1006.23
2017-06-13T02:19:41.913Z,1006.23
2017-06-13T02:20:22.436Z,1006.2
2017-06-13T02:21:02.969Z,1006.2
2017-06-13T02:21:43.509Z,1006.18
2017-06-13T02:22:24.036Z,1006.19
2017-06-13T02:23:04.650Z,1006.23
2017-06-13T02:23:45.084Z,1006.19
2017-06-13T02:24:25.608Z,1006.18
2017-06-13T02:25:06.129Z,1006.23
2017-06-13T02:25:46.658Z,1006.23
2017-06-13T02:26:27.178Z,1006.23
2017-06-13T02:27:07.723Z,1006.25
2017-06-13T02:27:48.254Z,1006.25
2017-06-13T02:28:28.880Z,1006.24
2017-06-13T02:29:09.299Z,1006.27
2017-06-13T02:29:49.829Z,1006.24
2017-06-13T02:30:30.363Z,1006.25
2017-06-13T02:31:10.894Z,1006.24
2017-06-13T02:31:51.403Z,1006.25
2017-06-13T02:32:31.936Z,1006.23
2017-06-13T02:33:12.495Z,1006.27
2017-06-13T02:33:53.022Z,1006.26
2017-06-13T02:34:33.550Z,1006.28
2017-06-13T02:35:14.068Z,1006.21
2017-06-13T02:35:54.581Z,1006.3
2017-06-13T02:36:35.105Z,1006.23
2017-06-13T02:37:15.617Z,1006.28
2017-06-13T02:37:56.142Z,1006.25
2017-06-13T02:38:36.666Z,1006.29
2017-06-13T02:39:17.182Z,1006.24
2017-06-13T02:39:57.707Z,1006.23
2017-06-13T02:40:38.225Z,1006.22
2017-06-13T02:41:18.744Z,1006.27
2017-06-13T02:41:59.263Z,1006.19
2017-06-13T02:42:39.773Z,1006.23
2017-06-13T02:43:20.299Z,1006.24
2017-06-13T02:44:00.827Z,1006.23
2017-06-13T02:44:41.362Z,1006.24
2017-06-13T02:45:21.894Z,1006.22
2017-06-13T02:46:02.415Z,1006.27
2017-06-13T02:46:42.946Z,1006.26
2017-06-13T02:47:23.489Z,1006.26
2017-06-13T02:48:04.016Z,1006.24
2017-06-13T02:50:17.294Z,1006.28
2017-06-13T02:50:57.801Z,1006.27
2017-06-13T02:51:38.319Z,1006.3
2017-06-13T02:52:18.851Z,1006.25
2017-06-13T02:52:59.374Z,1006.24
2017-06-13T02:53:39.894Z,1006.26
2017-06-13T02:54:20.415Z,1006.26
2017-06-13T02:55:00.962Z,1006.22
2017-06-13T02:55:41.492Z,1006.3
2017-06-13T02:56:22.019Z,1006.28
2017-06-13T02:57:02.537Z,1006.26
2017-06-13T02:57:43.057Z,1006.31
2017-06-13T02:58:23.580Z,1006.33
2017-06-13T02:59:04.097Z,1006.3
2017-06-13T02:59:44.617Z,1006.31
2017-06-13T03:00:25.153Z,1006.33
2017-06-13T03:01:05.681Z,1006.34
2017-06-13T03:01:46.198Z,1006.31
2017-06-13T03:02:26.720Z,1006.37
2017-06-13T03:03:07.244Z,1006.37
2017-06-13T03:03:47.772Z,1006.32
2017-06-13T03:04:28.287Z,1006.33
2017-06-13T03:05:08.838Z,1006.39
2017-06-13T03:05:49.352Z,1006.39
2017-06-13T03:06:29.877Z,1006.36
2017-06-13T03:07:10.396Z,1006.4
2017-06-13T03:07:50.933Z,1006.35
2017-06-13T03:08:31.452Z,1006.38
2017-06-13T03:09:11.980Z,1006.34
2017-06-13T03:09:52.500Z,1006.38
2017-06-13T03:10:33.021Z,1006.37
2017-06-13T03:11:13.554Z,1006.44
2017-06-13T03:11:54.079Z,1006.45
2017-06-13T03:12:34.590Z,1006.45
2017-06-13T03:13:15.114Z,1006.4
2017-06-13T03:13:55.635Z,1006.43
2017-06-13T03:14:36.190Z,1006.41
2017-06-13T03:15:16.777Z,1006.44
2017-06-13T03:15:57.294Z,1006.41
2017-06-13T03:16:37.827Z,1006.4
2017-06-13T03:17:18.354Z,1006.42
2017-06-13T03:17:58.878Z,1006.49
2017-06-13T03:18:39.405Z,1006.49
2017-06-13T03:19:19.933Z,1006.52
2017-06-13T03:20:00.478Z,1006.48
2017-06-13T03:20:41.003Z,1006.53
2017-06-13T03:21:21.520Z,1006.49
2017-06-13T03:22:02.040Z,1006.49
2017-06-13T03:22:42.644Z,1006.51
2017-06-13T03:23:23.173Z,1006.53
2017-06-13T03:24:03.692Z,1006.56
2017-06-13T03:24:44.218Z,1006.59
2017-06-13T03:25:24.736Z,1006.57
2017-06-13T03:26:05.261Z,1006.59
2017-06-13T03:26:45.787Z,1006.58
2017-06-13T03:27:26.310Z,1006.58
2017-06-13T03:28:06.889Z,1006.57
2017-06-13T03:28:47.410Z,1006.62
2017-06-13T03:29:27.924Z,1006.61
2017-06-13T03:30:08.451Z,1006.61
2017-06-13T03:30:48.973Z,1006.64
2017-06-13T03:31:29.501Z,1006.6
2017-06-13T03:32:10.027Z,1006.61
2017-06-13T03:32:50.563Z,1006.6
2017-06-13T03:33:31.086Z,1006.57
2017-06-13T03:34:11.615Z,1006.54
2017-06-13T03:34:52.137Z,1006.57
2017-06-13T03:35:32.657Z,1006.55
2017-06-13T03:36:13.185Z,1006.52
2017-06-13T03:36:53.698Z,1006.53
2017-06-13T03:37:34.217Z,1006.53
2017-06-13T03:38:14.738Z,1006.58
2017-06-13T03:38:55.266Z,1006.52
2017-06-13T03:39:35.781Z,1006.54
2017-06-13T03:40:16.304Z,1006.53
2017-06-13T03:40:56.836Z,1006.55
2017-06-13T03:41:37.424Z,1006.55
2017-06-13T03:42:17.953Z,1006.52
2017-06-13T03:42:58.470Z,1006.51
2017-06-13T03:43:38.997Z,1006.51
2017-06-13T03:44:19.509Z,1006.51
2017-06-13T03:45:00.030Z,1006.49
2017-06-13T03:45:40.553Z,1006.46
2017-06-13T03:46:21.066Z,1006.51
2017-06-13T03:47:01.589Z,1006.47
2017-06-13T03:47:42.104Z,1006.51
2017-06-13T03:48:22.626Z,1006.51
2017-06-13T03:49:03.161Z,1006.53
2017-06-13T03:49:43.680Z,1006.55
2017-06-13T03:50:24.205Z,1006.54
2017-06-13T03:51:04.799Z,1006.54
2017-06-13T03:51:45.301Z,1006.53
2017-06-13T03:52:25.824Z,1006.53
2017-06-13T03:53:06.351Z,1006.57
2017-06-13T03:53:46.872Z,1006.53
2017-06-13T03:54:27.390Z,1006.54
2017-06-13T03:55:07.908Z,1006.55
2017-06-13T03:55:48.421Z,1006.53
2017-06-13T03:56:28.973Z,1006.52
2017-06-13T03:57:09.498Z,1006.53
2017-06-13T03:57:50.014Z,1006.53
2017-06-13T03:58:30.535Z,1006.55
2017-06-13T03:59:11.056Z,1006.58
2017-06-13T03:59:51.577Z,1006.57
2017-06-13T04:00:32.098Z,1006.61
2017-06-13T04:01:12.608Z,1006.63
2017-06-13T04:01:53.134Z,1006.62
2017-06-13T04:02:33.661Z,1006.64
2017-06-13T04:03:14.193Z,1006.63
2017-06-13T04:03:54.714Z,1006.65
2017-06-13T04:04:35.239Z,1006.62
2017-06-13T04:05:15.765Z,1006.67
2017-06-13T04:05:56.289Z,1006.65
2017-06-13T04:06:36.802Z,1006.63
2017-06-13T04:07:17.365Z,1006.61
2017-06-13T04:07:57.837Z,1006.57
2017-06-13T04:08:38.362Z,1006.57
2017-06-13T04:09:18.873Z,1006.61
2017-06-13T04:09:59.393Z,1006.62
2017-06-13T04:10:39.918Z,1006.67
2017-06-13T04:11:20.447Z,1006.65
2017-06-13T04:12:00.967Z,1006.69
2017-06-13T04:12:41.485Z,1006.66
2017-06-13T04:13:22.000Z,1006.7
2017-06-13T04:14:02.517Z,1006.73
2017-06-13T04:14:43.037Z,1006.72
2017-06-13T04:15:23.552Z,1006.71
2017-06-13T04:16:04.069Z,1006.73
2017-06-13T04:16:44.590Z,1006.73
2017-06-13T04:17:25.107Z,1006.75
2017-06-13T04:18:05.640Z,1006.73
2017-06-13T04:18:46.170Z,1006.74
2017-06-13T04:19:26.690Z,1006.74
2017-06-13T04:20:07.213Z,1006.79
2017-06-13T04:20:47.758Z,1006.72
2017-06-13T04:21:28.284Z,1006.72
2017-06-13T04:22:08.821Z,1006.69
2017-06-13T04:22:49.346Z,1006.69
2017-06-13T04:23:29.892Z,1006.7
2017-06-13T04:24:10.396Z,1006.72
2017-06-13T04:24:50.922Z,1006.72
2017-06-13T04:25:31.442Z,1006.75
2017-06-13T04:26:11.979Z,1006.72
2017-06-13T04:26:52.514Z,1006.67
2017-06-13T04:27:33.036Z,1006.64
2017-06-13T04:28:13.548Z,1006.61
2017-06-13T04:28:54.071Z,1006.64
2017-06-13T04:29:34.605Z,1006.63
2017-06-13T04:30:15.134Z,1006.62
2017-06-13T04:30:55.646Z,1006.64
2017-06-13T04:31:36.170Z,1006.7
2017-06-13T04:32:16.688Z,1006.69
2017-06-13T04:32:57.217Z,1006.69
2017-06-13T04:33:37.750Z,1006.66
2017-06-13T04:34:18.296Z,1006.68
2017-06-13T04:34:58.814Z,1006.65
2017-06-13T04:35:39.338Z,1006.66
2017-06-13T04:36:19.864Z,1006.66
2017-06-13T04:37:00.388Z,1006.63
2017-06-13T04:37:40.918Z,1006.65
2017-06-13T04:38:21.437Z,1006.66
2017-06-13T04:39:01.967Z,1006.72
2017-06-13T04:39:42.506Z,1006.69
2017-06-13T04:40:23.024Z,1006.74
2017-06-13T04:41:03.557Z,1006.78
2017-06-13T04:41:44.098Z,1006.94
2017-06-13T04:42:24.627Z,1006.95
2017-06-13T04:43:05.144Z,1007.01
2017-06-13T04:43:45.669Z,1006.94
2017-06-13T04:44:26.188Z,1006.85
2017-06-13T04:45:06.713Z,1006.82
2017-06-13T04:45:47.228Z,1006.79
2017-06-13T04:46:27.753Z,1006.77
2017-06-13T04:47:08.284Z,1006.78
2017-06-13T04:47:48.819Z,1006.78
2017-06-13T04:48:29.332Z,1006.81
2017-06-13T04:49:09.863Z,1006.84
2017-06-13T04:49:50.386Z,1006.79
2017-06-13T04:50:31.131Z,1006.83
2017-06-13T04:51:11.449Z,1006.81
2017-06-13T04:51:52.002Z,1006.84
2017-06-13T04:52:32.527Z,1006.81
2017-06-13T04:53:13.049Z,1006.84
2017-06-13T04:53:53.566Z,1006.84
2017-06-13T04:54:34.088Z,1006.81
2017-06-13T04:55:14.599Z,1006.85
2017-06-13T04:55:55.123Z,1006.82
2017-06-13T04:56:35.669Z,1006.85
2017-06-13T04:57:16.188Z,1006.79
2017-06-13T04:57:56.712Z,1006.79
2017-06-13T04:58:37.234Z,1006.8
2017-06-13T04:59:17.745Z,1006.86
2017-06-13T04:59:58.265Z,1006.83
2017-06-13T05:00:38.793Z,1006.79
2017-06-13T05:01:19.297Z,1006.78
2017-06-13T05:01:59.828Z,1006.8
2017-06-13T05:02:40.343Z,1006.78
2017-06-13T05:03:20.871Z,1006.8
2017-06-13T05:04:01.394Z,1006.78
2017-06-13T05:04:41.905Z,1006.77
2017-06-13T05:05:22.435Z,1006.79
2017-06-13T05:06:02.959Z,1006.81
2017-06-13T05:06:43.463Z,1006.81
2017-06-13T05:07:23.974Z,1006.79
2017-06-13T05:08:04.483Z,1006.81
2017-06-13T05:08:45.036Z,1006.83
2017-06-13T05:09:25.555Z,1006.78
2017-06-13T05:10:06.092Z,1006.76
2017-06-13T05:10:46.608Z,1006.82
2017-06-13T05:11:27.114Z,1006.76
2017-06-13T05:12:07.656Z,1006.83
2017-06-13T05:12:48.188Z,1006.78
2017-06-13T05:13:28.695Z,1006.81
2017-06-13T05:14:09.223Z,1006.82
2017-06-13T05:14:49.787Z,1006.78
2017-06-13T05:15:30.306Z,1006.82
2017-06-13T05:16:10.829Z,1006.79
2017-06-13T05:16:51.374Z,1006.81
2017-06-13T05:17:31.908Z,1006.78
2017-06-13T05:18:12.437Z,1006.78
2017-06-13T05:18:53.033Z,1006.75
2017-06-13T05:19:33.501Z,1006.76
2017-06-13T05:20:14.017Z,1006.78
2017-06-13T05:20:54.542Z,1006.74
2017-06-13T05:21:35.075Z,1006.67
2017-06-13T05:22:15.846Z,1006.69
2017-06-13T05:22:56.363Z,1006.67
2017-06-13T05:23:37.214Z,1006.69
2017-06-13T05:24:18.026Z,1006.7
2017-06-13T05:24:58.553Z,1006.69
2017-06-13T05:25:39.629Z,1006.64
2017-06-13T05:26:20.154Z,1006.7
2017-06-13T05:27:00.682Z,1006.7
2017-06-13T05:27:41.206Z,1006.63
2017-06-13T05:28:21.908Z,1006.66
2017-06-13T05:29:02.736Z,1006.72
2017-06-13T05:31:01.174Z,1006.69
2017-06-13T05:31:41.716Z,1006.71
2017-06-13T05:32:22.219Z,1006.71
2017-06-13T05:33:02.736Z,1006.66
2017-06-13T05:33:43.259Z,1006.66
2017-06-13T05:34:23.805Z,1006.62
2017-06-13T05:35:04.333Z,1006.66
2017-06-13T05:35:44.865Z,1006.63
2017-06-13T05:36:25.878Z,1006.63
2017-06-13T05:37:06.383Z,1006.64
2017-06-13T05:37:46.895Z,1006.64
2017-06-13T05:38:27.452Z,1006.65
2017-06-13T05:39:07.981Z,1006.69
2017-06-13T05:39:48.485Z,1006.69
2017-06-13T05:40:28.998Z,1006.66
2017-06-13T05:41:09.531Z,1006.71
2017-06-13T05:41:50.051Z,1006.7
2017-06-13T05:42:30.595Z,1006.68
2017-06-13T05:43:11.095Z,1006.69
2017-06-13T05:43:51.578Z,1006.71
2017-06-13T05:44:32.158Z,1006.74
2017-06-13T05:45:12.687Z,1006.71
2017-06-13T05:45:53.268Z,1006.71
2017-06-13T05:46:33.773Z,1006.68
2017-06-13T05:47:14.701Z,1006.68
2017-06-13T05:47:55.271Z,1006.66
2017-06-13T05:48:35.743Z,1006.66
2017-06-13T05:49:16.277Z,1006.66
2017-06-13T05:49:56.803Z,1006.67
2017-06-13T05:50:37.521Z,1006.66
2017-06-13T05:51:17.997Z,1006.66
2017-06-13T05:51:58.535Z,1006.61
2017-06-13T05:52:39.084Z,1006.66
2017-06-13T05:53:19.557Z,1006.7
2017-06-13T05:54:00.107Z,1006.62
2017-06-13T05:54:40.822Z,1006.62
2017-06-13T05:55:21.287Z,1006.65
2017-06-13T05:56:01.708Z,1006.64
2017-06-13T05:56:42.219Z,1006.68
2017-06-13T05:57:22.945Z,1006.66
2017-06-13T05:58:03.498Z,1006.66
2017-06-13T05:58:44.018Z,1006.65
2017-06-13T05:59:24.530Z,1006.67
2017-06-13T06:00:05.097Z,1006.72
2017-06-13T06:00:45.571Z,1006.68
2017-06-13T06:01:26.370Z,1006.68
2017-06-13T06:02:06.944Z,1006.63
2017-06-13T06:02:47.433Z,1006.64
2017-06-13T06:03:27.922Z,1006.7
2017-06-13T06:04:08.483Z,1006.63
2017-06-13T06:04:48.968Z,1006.62
2017-06-13T06:05:29.504Z,1006.66
2017-06-13T06:06:09.999Z,1006.59
2017-06-13T06:06:50.550Z,1006.6
2017-06-13T06:07:30.989Z,1006.6
2017-06-13T06:08:11.511Z,1006.58
2017-06-13T06:08:51.928Z,1006.63
2017-06-13T06:09:32.422Z,1006.6
2017-06-13T06:10:12.940Z,1006.66
2017-06-13T06:10:53.445Z,1006.61
2017-06-13T06:11:33.968Z,1006.65
2017-06-13T06:12:14.503Z,1006.66
2017-06-13T06:12:55.205Z,1006.6
2017-06-13T06:13:35.562Z,1006.63
2017-06-13T06:14:16.137Z,1006.7
2017-06-13T06:14:56.571Z,1006.65
2017-06-13T06:15:37.081Z,1006.62
2017-06-13T06:16:17.608Z,1006.67
2017-06-13T06:16:58.103Z,1006.64
2017-06-13T06:17:38.658Z,1006.68
2017-06-13T06:18:19.165Z,1006.67
2017-06-13T06:18:59.771Z,1006.66
2017-06-13T06:19:40.189Z,1006.67
2017-06-13T06:20:20.673Z,1006.62
2017-06-13T06:21:01.459Z,1006.65
2017-06-13T06:21:41.944Z,1006.61
2017-06-13T06:22:22.515Z,1006.62
2017-06-13T06:23:03.001Z,1006.6
2017-06-13T06:23:43.471Z,1006.58
2017-06-13T06:24:23.989Z,1006.61
2017-06-13T06:25:04.509Z,1006.63
2017-06-13T06:25:44.984Z,1006.62
2017-06-13T06:26:25.489Z,1006.59
2017-06-13T06:27:05.962Z,1006.59
2017-06-13T06:27:46.458Z,1006.58
2017-06-13T06:28:26.948Z,1006.63
2017-06-13T06:29:07.442Z,1006.61
2017-06-13T06:29:47.918Z,1006.61
2017-06-13T06:30:28.422Z,1006.59
2017-06-13T06:31:08.962Z,1006.56
2017-06-13T06:31:49.457Z,1006.56
2017-06-13T06:32:29.965Z,1006.63
2017-06-13T06:33:10.444Z,1006.59
2017-06-13T06:33:50.968Z,1006.58
2017-06-13T06:34:31.429Z,1006.63
2017-06-13T06:35:12.053Z,1006.6
2017-06-13T06:35:52.590Z,1006.62
2017-06-13T06:36:33.050Z,1006.62
2017-06-13T06:37:13.553Z,1006.64
2017-06-13T06:37:54.078Z,1006.65
2017-06-13T06:38:34.581Z,1006.62
2017-06-13T06:39:15.070Z,1006.62
2017-06-13T06:39:55.576Z,1006.62
2017-06-13T06:40:36.074Z,1006.63
2017-06-13T06:41:16.577Z,1006.61
2017-06-13T06:41:57.082Z,1006.59
2017-06-13T06:42:37.611Z,1006.62
2017-06-13T06:43:18.131Z,1006.65
2017-06-13T06:43:58.604Z,1006.64
2017-06-13T06:44:39.110Z,1006.63
2017-06-13T06:45:19.597Z,1006.65
2017-06-13T06:46:00.131Z,1006.68
2017-06-13T06:46:40.614Z,1006.68
2017-06-13T06:47:21.261Z,1006.7
2017-06-13T06:48:01.623Z,1006.68
2017-06-13T06:48:42.125Z,1006.75
2017-06-13T06:49:22.620Z,1006.72
2017-06-13T06:50:03.123Z,1006.74
2017-06-13T06:50:43.693Z,1006.68
2017-06-13T06:51:24.171Z,1006.68
2017-06-13T06:52:04.677Z,1006.7
2017-06-13T06:52:45.174Z,1006.7
2017-06-13T06:53:25.689Z,1006.7
2017-06-13T06:54:06.199Z,1006.67
2017-06-13T06:54:46.732Z,1006.66
2017-06-13T06:55:27.179Z,1006.62
2017-06-13T06:56:07.728Z,1006.62
2017-06-13T06:56:48.213Z,1006.62
2017-06-13T06:57:28.705Z,1006.57
2017-06-13T06:58:09.226Z,1006.64
2017-06-13T06:58:49.757Z,1006.61
2017-06-13T06:59:30.283Z,1006.65
2017-06-13T07:00:10.816Z,1006.64
2017-06-13T07:00:51.327Z,1006.62
2017-06-13T07:01:31.863Z,1006.61
2017-06-13T07:03:51.329Z,1006.63
2017-06-13T07:04:31.847Z,1006.63
2017-06-13T07:05:12.378Z,1006.56
2017-06-13T07:05:52.882Z,1006.58
2017-06-13T07:06:33.419Z,1006.59
2017-06-13T07:07:13.970Z,1006.56
2017-06-13T07:07:54.485Z,1006.59
2017-06-13T07:08:34.956Z,1006.59
2017-06-13T07:09:15.478Z,1006.57
2017-06-13T07:09:55.958Z,1006.57
2017-06-13T07:10:36.515Z,1006.57
2017-06-13T07:11:17.032Z,1006.56
2017-06-13T07:11:57.533Z,1006.58
2017-06-13T07:12:38.092Z,1006.6
2017-06-13T07:13:18.522Z,1006.58
2017-06-13T07:13:59.017Z,1006.57
2017-06-13T07:14:39.609Z,1006.65
2017-06-13T07:15:20.042Z,1006.61
2017-06-13T07:16:00.550Z,1006.53
2017-06-13T07:16:41.065Z,1006.53
2017-06-13T07:17:21.621Z,1006.53
2017-06-13T07:18:02.139Z,1006.52
2017-06-13T07:18:42.603Z,1006.56
2017-06-13T07:19:23.111Z,1006.54
2017-06-13T07:20:03.657Z,1006.56
2017-06-13T07:20:44.129Z,1006.54
2017-06-13T07:21:24.608Z,1006.56
2017-06-13T07:22:05.129Z,1006.58
2017-06-13T07:22:45.618Z,1006.6
2017-06-13T07:23:26.135Z,1006.55
2017-06-13T07:24:06.648Z,1006.59
2017-06-13T07:24:47.102Z,1006.55
2017-06-13T07:25:27.633Z,1006.55
2017-06-13T07:26:08.098Z,1006.53
2017-06-13T07:26:48.639Z,1006.55
2017-06-13T07:27:29.106Z,1006.53
2017-06-13T07:28:09.613Z,1006.58
2017-06-13T07:28:50.081Z,1006.56
2017-06-13T07:29:30.632Z,1006.56
2017-06-13T07:30:11.095Z,1006.57
2017-06-13T07:30:51.581Z,1006.62
2017-06-13T07:31:32.130Z,1006.6
2017-06-13T07:32:12.609Z,1006.58
2017-06-13T07:32:53.096Z,1006.59
2017-06-13T07:33:33.637Z,1006.58
2017-06-13T07:34:14.116Z,1006.56
2017-06-13T07:34:54.573Z,1006.53
2017-06-13T07:35:35.081Z,1006.55
2017-06-13T07:36:15.571Z,1006.56
2017-06-13T07:36:56.104Z,1006.57
2017-06-13T07:37:36.587Z,1006.49
2017-06-13T07:38:17.116Z,1006.53
2017-06-13T07:38:57.629Z,1006.5
2017-06-13T07:39:38.091Z,1006.53
2017-06-13T07:40:18.637Z,1006.51
2017-06-13T07:40:59.100Z,1006.56
2017-06-13T07:41:39.570Z,1006.53
2017-06-13T07:42:20.050Z,1006.56
2017-06-13T07:43:00.605Z,1006.54
2017-06-13T07:43:41.117Z,1006.49
2017-06-13T07:44:21.578Z,1006.53
2017-06-13T07:45:02.139Z,1006.47
2017-06-13T07:45:42.635Z,1006.48
2017-06-13T07:46:23.092Z,1006.52
2017-06-13T07:47:03.885Z,1006.52
2017-06-13T07:47:44.388Z,1006.55
2017-06-13T07:48:24.859Z,1006.54
2017-06-13T07:49:05.369Z,1006.55
2017-06-13T07:49:45.850Z,1006.54
2017-06-13T07:50:26.309Z,1006.52
2017-06-13T07:51:06.809Z,1006.5
2017-06-13T07:51:47.310Z,1006.56
2017-06-13T07:52:27.842Z,1006.53
2017-06-13T07:53:08.311Z,1006.54
2017-06-13T07:53:48.808Z,1006.55
2017-06-13T07:54:29.345Z,1006.48
2017-06-13T07:55:10.191Z,1006.52
2017-06-13T07:55:50.661Z,1006.5
2017-06-13T07:56:31.207Z,1006.46
2017-06-13T07:57:11.665Z,1006.49
2017-06-13T07:57:52.129Z,1006.51
2017-06-13T07:58:32.620Z,1006.51
2017-06-13T07:59:13.087Z,1006.48
2017-06-13T07:59:53.599Z,1006.54
2017-06-13T08:00:34.104Z,1006.51
2017-06-13T08:01:14.593Z,1006.49
2017-06-13T08:01:55.110Z,1006.49
2017-06-13T08:02:35.638Z,1006.52
2017-06-13T08:03:16.150Z,1006.55
2017-06-13T08:03:56.649Z,1006.48
2017-06-13T08:04:37.152Z,1006.44
2017-06-13T08:05:17.682Z,1006.46
2017-06-13T08:05:58.143Z,1006.42
2017-06-13T08:06:38.675Z,1006.47
2017-06-13T08:07:19.154Z,1006.42
2017-06-13T08:07:59.681Z,1006.44
2017-06-13T08:08:40.210Z,1006.4
2017-06-13T08:09:20.688Z,1006.4
2017-06-13T08:10:01.132Z,1006.36
2017-06-13T08:10:41.618Z,1006.36
2017-06-13T08:11:22.132Z,1006.4
2017-06-13T08:12:02.637Z,1006.4
2017-06-13T08:12:43.111Z,1006.37
2017-06-13T08:13:24.911Z,1006.37
2017-06-13T08:14:04.141Z,1006.39
2017-06-13T08:14:44.670Z,1006.38
2017-06-13T08:15:25.511Z,1006.37
2017-06-13T08:16:06.003Z,1006.37
2017-06-13T08:16:46.485Z,1006.42
2017-06-13T08:17:27.013Z,1006.4
2017-06-13T08:18:07.492Z,1006.41
2017-06-13T08:18:48.011Z,1006.38